sensor_id;sensor_type;location;lat;lon;timestamp;pressure;altitude;pressure_sealevel;temperature;humidity
64460;BME280;50828;53.756;21.140;2024-01-15T00:03:39;97305.01;;;1.28;74.53
64460;BME280;50828;53.756;21.140;2024-01-15T00:08:49;97296.02;;;1.28;74.57
64460;BME280;50828;53.756;21.140;2024-01-15T00:13:56;97286.67;;;1.27;74.61
64460;BME280;50828;53.756;21.140;2024-01-15T00:19:04;97276.31;;;1.23;74.76
64460;BME280;50828;53.756;21.140;2024-01-15T00:24:11;97272.73;;;1.25;74.55
64460;BME280;50828;53.756;21.140;2024-01-15T00:29:19;97267.56;;;1.24;74.74
64460;BME280;50828;53.756;21.140;2024-01-15T00:34:26;97260.31;;;1.24;74.79
64460;BME280;50828;53.756;21.140;2024-01-15T00:39:34;97252.98;;;1.21;74.72
64460;BME280;50828;53.756;21.140;2024-01-15T00:44:41;97249.91;;;1.20;74.83
64460;BME280;50828;53.756;21.140;2024-01-15T00:49:49;97246.52;;;1.18;74.83
64460;BME280;50828;53.756;21.140;2024-01-15T00:54:56;97243.47;;;1.17;74.90
64460;BME280;50828;53.756;21.140;2024-01-15T01:00:04;97238.96;;;1.17;74.94
64460;BME280;50828;53.756;21.140;2024-01-15T01:05:12;97232.35;;;1.18;74.93
64460;BME280;50828;53.756;21.140;2024-01-15T01:10:20;97226.50;;;1.17;74.85
64460;BME280;50828;53.756;21.140;2024-01-15T01:15:27;97217.65;;;1.17;74.90
64460;BME280;50828;53.756;21.140;2024-01-15T01:20:34;97208.61;;;1.17;74.90
64460;BME280;50828;53.756;21.140;2024-01-15T01:25:42;97204.21;;;1.19;74.82
64460;BME280;50828;53.756;21.140;2024-01-15T01:30:50;97201.33;;;1.18;74.90
64460;BME280;50828;53.756;21.140;2024-01-15T01:35:58;97190.29;;;1.16;74.81
64460;BME280;50828;53.756;21.140;2024-01-15T01:41:05;97176.70;;;1.14;74.83
64460;BME280;50828;53.756;21.140;2024-01-15T01:46:13;97165.27;;;1.14;74.67
64460;BME280;50828;53.756;21.140;2024-01-15T01:51:21;97161.91;;;1.16;74.64
64460;BME280;50828;53.756;21.140;2024-01-15T01:56:30;97149.63;;;1.15;74.65
64460;BME280;50828;53.756;21.140;2024-01-15T02:01:37;97138.15;;;1.16;74.58
64460;BME280;50828;53.756;21.140;2024-01-15T02:06:45;97132.27;;;1.15;74.58
64460;BME280;50828;53.756;21.140;2024-01-15T02:11:53;97118.92;;;1.16;74.44
64460;BME280;50828;53.756;21.140;2024-01-15T02:17:01;97116.79;;;1.16;74.42
64460;BME280;50828;53.756;21.140;2024-01-15T02:22:09;97114.69;;;1.17;74.40
64460;BME280;50828;53.756;21.140;2024-01-15T02:27:16;97108.19;;;1.19;74.34
64460;BME280;50828;53.756;21.140;2024-01-15T02:32:25;97096.45;;;1.18;74.39
64460;BME280;50828;53.756;21.140;2024-01-15T02:37:32;97087.16;;;1.16;74.23
64460;BME280;50828;53.756;21.140;2024-01-15T02:42:40;97077.64;;;1.12;74.21
64460;BME280;50828;53.756;21.140;2024-01-15T02:47:47;97071.23;;;1.12;74.38
64460;BME280;50828;53.756;21.140;2024-01-15T02:52:55;97067.96;;;1.12;74.45
64460;BME280;50828;53.756;21.140;2024-01-15T02:58:02;97062.99;;;1.10;74.49
64460;BME280;50828;53.756;21.140;2024-01-15T03:03:10;97059.09;;;1.09;74.60
64460;BME280;50828;53.756;21.140;2024-01-15T03:08:17;97044.94;;;1.08;74.65
64460;BME280;50828;53.756;21.140;2024-01-15T03:13:25;97038.55;;;1.07;74.67
64460;BME280;50828;53.756;21.140;2024-01-15T03:18:32;97029.40;;;1.07;74.74
64460;BME280;50828;53.756;21.140;2024-01-15T03:23:40;97018.83;;;1.07;74.77
64460;BME280;50828;53.756;21.140;2024-01-15T03:28:47;97006.23;;;1.05;74.74
64460;BME280;50828;53.756;21.140;2024-01-15T03:33:54;97003.81;;;1.05;74.74
64460;BME280;50828;53.756;21.140;2024-01-15T03:39:02;96995.36;;;1.05;74.70
64460;BME280;50828;53.756;21.140;2024-01-15T03:44:09;96985.98;;;1.05;74.82
64460;BME280;50828;53.756;21.140;2024-01-15T03:49:16;96986.35;;;1.04;74.81
64460;BME280;50828;53.756;21.140;2024-01-15T03:54:24;96986.48;;;1.06;74.83
64460;BME280;50828;53.756;21.140;2024-01-15T03:59:32;96985.67;;;1.07;74.83
64460;BME280;50828;53.756;21.140;2024-01-15T04:04:42;96981.88;;;1.07;74.76
64460;BME280;50828;53.756;21.140;2024-01-15T04:09:50;96969.75;;;1.07;74.75
64460;BME280;50828;53.756;21.140;2024-01-15T04:14:57;96960.19;;;1.08;74.79
64460;BME280;50828;53.756;21.140;2024-01-15T04:20:06;96951.38;;;1.07;74.78
64460;BME280;50828;53.756;21.140;2024-01-15T04:25:14;96936.02;;;1.09;74.78
64460;BME280;50828;53.756;21.140;2024-01-15T04:30:21;96929.56;;;1.10;74.73
64460;BME280;50828;53.756;21.140;2024-01-15T04:35:29;96922.44;;;1.10;74.75
64460;BME280;50828;53.756;21.140;2024-01-15T04:40:37;96912.20;;;1.10;74.80
64460;BME280;50828;53.756;21.140;2024-01-15T04:45:44;96902.42;;;1.12;74.80
64460;BME280;50828;53.756;21.140;2024-01-15T04:50:51;96895.81;;;1.13;74.75
64460;BME280;50828;53.756;21.140;2024-01-15T04:55:59;96886.23;;;1.13;74.71
64460;BME280;50828;53.756;21.140;2024-01-15T05:01:06;96879.98;;;1.14;74.74
64460;BME280;50828;53.756;21.140;2024-01-15T05:06:15;96871.48;;;1.14;74.81
64460;BME280;50828;53.756;21.140;2024-01-15T05:11:23;96863.95;;;1.12;74.78
64460;BME280;50828;53.756;21.140;2024-01-15T05:16:30;96856.18;;;1.12;74.87
64460;BME280;50828;53.756;21.140;2024-01-15T05:21:37;96851.45;;;1.09;74.88
64460;BME280;50828;53.756;21.140;2024-01-15T05:26:45;96854.33;;;1.07;75.00
64460;BME280;50828;53.756;21.140;2024-01-15T05:31:52;96847.19;;;1.05;74.99
64460;BME280;50828;53.756;21.140;2024-01-15T05:37:03;96844.48;;;1.03;75.08
64460;BME280;50828;53.756;21.140;2024-01-15T05:42:10;96834.93;;;1.00;74.99
64460;BME280;50828;53.756;21.140;2024-01-15T05:47:18;96830.33;;;0.99;75.03
64460;BME280;50828;53.756;21.140;2024-01-15T05:52:25;96825.40;;;0.97;75.17
64460;BME280;50828;53.756;21.140;2024-01-15T05:57:33;96818.30;;;0.97;75.18
64460;BME280;50828;53.756;21.140;2024-01-15T06:02:40;96815.39;;;0.96;75.19
64460;BME280;50828;53.756;21.140;2024-01-15T06:07:47;96808.52;;;0.95;75.21
64460;BME280;50828;53.756;21.140;2024-01-15T06:12:54;96802.48;;;0.95;75.24
64460;BME280;50828;53.756;21.140;2024-01-15T06:18:02;96801.81;;;0.95;75.18
64460;BME280;50828;53.756;21.140;2024-01-15T06:23:10;96796.42;;;0.95;75.26
64460;BME280;50828;53.756;21.140;2024-01-15T06:28:17;96791.92;;;0.95;75.27
64460;BME280;50828;53.756;21.140;2024-01-15T06:33:24;96789.13;;;0.95;75.24
64460;BME280;50828;53.756;21.140;2024-01-15T06:38:32;96785.17;;;0.95;75.26
64460;BME280;50828;53.756;21.140;2024-01-15T06:43:39;96784.00;;;0.94;75.46
64460;BME280;50828;53.756;21.140;2024-01-15T06:48:46;96775.98;;;0.91;75.46
64460;BME280;50828;53.756;21.140;2024-01-15T06:53:54;96773.11;;;0.90;75.24
64460;BME280;50828;53.756;21.140;2024-01-15T06:59:01;96771.30;;;0.88;75.31
64460;BME280;50828;53.756;21.140;2024-01-15T07:04:09;96770.88;;;0.86;75.42
64460;BME280;50828;53.756;21.140;2024-01-15T07:09:16;96768.48;;;0.85;75.41
64460;BME280;50828;53.756;21.140;2024-01-15T07:14:24;96766.06;;;0.86;75.64
64460;BME280;50828;53.756;21.140;2024-01-15T07:19:32;96768.52;;;0.85;75.53
64460;BME280;50828;53.756;21.140;2024-01-15T07:24:39;96766.14;;;0.84;75.62
64460;BME280;50828;53.756;21.140;2024-01-15T07:29:47;96764.62;;;0.84;75.50
64460;BME280;50828;53.756;21.140;2024-01-15T07:34:57;96762.27;;;0.82;75.80
64460;BME280;50828;53.756;21.140;2024-01-15T07:40:07;96768.73;;;0.81;75.74
64460;BME280;50828;53.756;21.140;2024-01-15T07:45:16;96769.66;;;0.80;75.76
64460;BME280;50828;53.756;21.140;2024-01-15T07:50:24;96773.20;;;0.79;75.77
64460;BME280;50828;53.756;21.140;2024-01-15T07:55:33;96772.94;;;0.77;75.76
64460;BME280;50828;53.756;21.140;2024-01-15T08:00:41;96774.92;;;0.76;75.73
64460;BME280;50828;53.756;21.140;2024-01-15T08:05:49;96771.55;;;0.74;75.77
64460;BME280;50828;53.756;21.140;2024-01-15T08:10:58;96769.09;;;0.71;75.62
64460;BME280;50828;53.756;21.140;2024-01-15T08:16:06;96771.86;;;0.68;75.29
64460;BME280;50828;53.756;21.140;2024-01-15T08:21:13;96770.06;;;0.66;75.23
64460;BME280;50828;53.756;21.140;2024-01-15T08:26:22;96776.23;;;0.64;75.04
64460;BME280;50828;53.756;21.140;2024-01-15T08:31:30;96780.13;;;0.62;75.00
64460;BME280;50828;53.756;21.140;2024-01-15T08:36:39;96785.42;;;0.61;74.87
64460;BME280;50828;53.756;21.140;2024-01-15T08:41:48;96784.26;;;0.60;74.82
64460;BME280;50828;53.756;21.140;2024-01-15T08:46:57;96787.29;;;0.58;74.36
64460;BME280;50828;53.756;21.140;2024-01-15T08:52:05;96790.27;;;0.58;74.43
64460;BME280;50828;53.756;21.140;2024-01-15T08:57:14;96788.73;;;0.57;74.01
64460;BME280;50828;53.756;21.140;2024-01-15T09:02:22;96792.79;;;0.59;74.02
64460;BME280;50828;53.756;21.140;2024-01-15T09:07:30;96795.66;;;0.60;73.89
64460;BME280;50828;53.756;21.140;2024-01-15T09:12:39;96795.76;;;0.62;73.62
64460;BME280;50828;53.756;21.140;2024-01-15T09:17:47;96800.69;;;0.63;73.59
64460;BME280;50828;53.756;21.140;2024-01-15T09:22:55;96793.58;;;0.64;73.54
64460;BME280;50828;53.756;21.140;2024-01-15T09:28:03;96797.00;;;0.64;73.38
64460;BME280;50828;53.756;21.140;2024-01-15T09:33:11;96795.92;;;0.65;73.60
64460;BME280;50828;53.756;21.140;2024-01-15T09:38:23;96791.86;;;0.66;73.50
64460;BME280;50828;53.756;21.140;2024-01-15T09:43:31;96792.32;;;0.68;73.48
64460;BME280;50828;53.756;21.140;2024-01-15T09:48:39;96789.20;;;0.67;73.69
64460;BME280;50828;53.756;21.140;2024-01-15T09:53:48;96780.45;;;0.66;73.55
64460;BME280;50828;53.756;21.140;2024-01-15T09:58:58;96775.95;;;0.66;73.47
64460;BME280;50828;53.756;21.140;2024-01-15T10:04:07;96766.77;;;0.66;73.51
64460;BME280;50828;53.756;21.140;2024-01-15T10:09:15;96765.17;;;0.67;73.54
64460;BME280;50828;53.756;21.140;2024-01-15T10:14:22;96762.36;;;0.68;73.52
64460;BME280;50828;53.756;21.140;2024-01-15T10:19:32;96762.23;;;0.67;73.53
64460;BME280;50828;53.756;21.140;2024-01-15T10:24:41;96756.11;;;0.64;73.53
64460;BME280;50828;53.756;21.140;2024-01-15T10:29:50;96757.77;;;0.63;73.69
64460;BME280;50828;53.756;21.140;2024-01-15T10:34:59;96747.92;;;0.63;73.52
64460;BME280;50828;53.756;21.140;2024-01-15T10:40:08;96746.63;;;0.64;73.67
64460;BME280;50828;53.756;21.140;2024-01-15T10:45:16;96737.54;;;0.65;73.60
64460;BME280;50828;53.756;21.140;2024-01-15T10:50:24;96740.55;;;0.67;73.63
64460;BME280;50828;53.756;21.140;2024-01-15T10:55:32;96731.80;;;0.69;73.63
64460;BME280;50828;53.756;21.140;2024-01-15T11:00:40;96727.17;;;0.68;73.52
64460;BME280;50828;53.756;21.140;2024-01-15T11:05:48;96727.99;;;0.69;73.66
64460;BME280;50828;53.756;21.140;2024-01-15T11:10:56;96726.27;;;0.69;73.32
64460;BME280;50828;53.756;21.140;2024-01-15T11:16:05;96721.42;;;0.69;73.22
64460;BME280;50828;53.756;21.140;2024-01-15T11:21:28;96710.98;;;0.70;73.22
64460;BME280;50828;53.756;21.140;2024-01-15T11:26:39;96711.16;;;0.70;73.00
64460;BME280;50828;53.756;21.140;2024-01-15T11:32:00;96706.23;;;0.71;72.92
64460;BME280;50828;53.756;21.140;2024-01-15T11:37:10;96712.02;;;0.73;72.71
64460;BME280;50828;53.756;21.140;2024-01-15T11:42:19;96708.31;;;0.74;72.53
64460;BME280;50828;53.756;21.140;2024-01-15T11:53:03;96703.02;;;0.72;72.17
64460;BME280;50828;53.756;21.140;2024-01-15T11:58:12;96697.27;;;0.73;72.27
64460;BME280;50828;53.756;21.140;2024-01-15T12:03:22;96686.06;;;0.72;72.07
64460;BME280;50828;53.756;21.140;2024-01-15T12:08:30;96679.67;;;0.72;72.13
64460;BME280;50828;53.756;21.140;2024-01-15T12:13:37;96672.35;;;0.73;72.21
64460;BME280;50828;53.756;21.140;2024-01-15T12:18:45;96670.41;;;0.77;72.17
64460;BME280;50828;53.756;21.140;2024-01-15T12:23:53;96667.38;;;0.78;72.35
64460;BME280;50828;53.756;21.140;2024-01-15T12:29:02;96663.06;;;0.78;72.96
64460;BME280;50828;53.756;21.140;2024-01-15T12:34:10;96656.19;;;0.74;73.06
64460;BME280;50828;53.756;21.140;2024-01-15T12:39:18;96651.34;;;0.71;73.19
64460;BME280;50828;53.756;21.140;2024-01-15T12:44:27;96648.64;;;0.66;73.21
64460;BME280;50828;53.756;21.140;2024-01-15T12:49:37;96651.20;;;0.64;73.21
64460;BME280;50828;53.756;21.140;2024-01-15T12:54:45;96642.51;;;0.61;73.26
64460;BME280;50828;53.756;21.140;2024-01-15T12:59:54;96647.58;;;0.61;73.36
64460;BME280;50828;53.756;21.140;2024-01-15T13:05:02;96654.59;;;0.59;73.26
64460;BME280;50828;53.756;21.140;2024-01-15T13:10:11;96646.23;;;0.57;73.40
64460;BME280;50828;53.756;21.140;2024-01-15T13:15:19;96644.90;;;0.52;72.96
64460;BME280;50828;53.756;21.140;2024-01-15T13:20:26;96638.56;;;0.51;73.02
64460;BME280;50828;53.756;21.140;2024-01-15T13:25:34;96632.80;;;0.49;72.66
64460;BME280;50828;53.756;21.140;2024-01-15T13:30:43;96637.14;;;0.45;72.52
64460;BME280;50828;53.756;21.140;2024-01-15T13:35:51;96638.33;;;0.43;72.61
64460;BME280;50828;53.756;21.140;2024-01-15T13:40:58;96642.61;;;0.41;72.36
64460;BME280;50828;53.756;21.140;2024-01-15T13:46:07;96655.67;;;0.39;72.74
64460;BME280;50828;53.756;21.140;2024-01-15T13:51:16;96650.92;;;0.37;73.00
64460;BME280;50828;53.756;21.140;2024-01-15T13:56:25;96653.33;;;0.34;73.09
64460;BME280;50828;53.756;21.140;2024-01-15T14:01:39;96640.52;;;0.31;72.96
64460;BME280;50828;53.756;21.140;2024-01-15T14:06:47;96639.79;;;0.28;72.83
64460;BME280;50828;53.756;21.140;2024-01-15T14:11:55;96636.23;;;0.27;72.89
64460;BME280;50828;53.756;21.140;2024-01-15T14:17:04;96639.28;;;0.28;72.90
64460;BME280;50828;53.756;21.140;2024-01-15T14:22:12;96643.91;;;0.29;73.20
64460;BME280;50828;53.756;21.140;2024-01-15T14:27:21;96637.36;;;0.29;73.57
64460;BME280;50828;53.756;21.140;2024-01-15T14:32:30;96632.99;;;0.26;73.58
64460;BME280;50828;53.756;21.140;2024-01-15T14:37:38;96627.77;;;0.27;73.67
64460;BME280;50828;53.756;21.140;2024-01-15T14:42:46;96627.50;;;0.29;73.62
64460;BME280;50828;53.756;21.140;2024-01-15T14:47:54;96634.20;;;0.30;73.70
64460;BME280;50828;53.756;21.140;2024-01-15T14:53:04;96647.38;;;0.29;73.95
64460;BME280;50828;53.756;21.140;2024-01-15T14:58:12;96654.61;;;0.27;73.87
64460;BME280;50828;53.756;21.140;2024-01-15T15:03:22;96674.05;;;0.19;73.98
64460;BME280;50828;53.756;21.140;2024-01-15T15:08:29;96673.06;;;0.08;74.09
64460;BME280;50828;53.756;21.140;2024-01-15T15:13:37;96663.74;;;0.01;73.88
64460;BME280;50828;53.756;21.140;2024-01-15T15:18:52;96667.23;;;-0.06;73.67
64460;BME280;50828;53.756;21.140;2024-01-15T15:24:02;96660.70;;;-0.13;73.59
64460;BME280;50828;53.756;21.140;2024-01-15T15:29:09;96653.13;;;-0.21;73.14
64460;BME280;50828;53.756;21.140;2024-01-15T15:34:17;96654.93;;;-0.29;72.85
64460;BME280;50828;53.756;21.140;2024-01-15T15:39:25;96657.88;;;-0.36;72.72
64460;BME280;50828;53.756;21.140;2024-01-15T15:44:32;96654.97;;;-0.43;72.48
64460;BME280;50828;53.756;21.140;2024-01-15T15:49:40;96661.48;;;-0.49;72.54
64460;BME280;50828;53.756;21.140;2024-01-15T15:54:49;96667.20;;;-0.53;72.30
64460;BME280;50828;53.756;21.140;2024-01-15T15:59:57;96664.34;;;-0.58;72.14
64460;BME280;50828;53.756;21.140;2024-01-15T16:05:06;96669.90;;;-0.62;72.00
64460;BME280;50828;53.756;21.140;2024-01-15T16:10:17;96671.52;;;-0.66;71.72
64460;BME280;50828;53.756;21.140;2024-01-15T16:15:25;96676.94;;;-0.71;71.23
64460;BME280;50828;53.756;21.140;2024-01-15T16:20:33;96680.04;;;-0.78;71.06
64460;BME280;50828;53.756;21.140;2024-01-15T16:26:01;96678.02;;;-0.86;70.94
64460;BME280;50828;53.756;21.140;2024-01-15T16:31:10;96677.42;;;-0.91;70.91
64460;BME280;50828;53.756;21.140;2024-01-15T16:36:17;96679.55;;;-0.97;70.72
64460;BME280;50828;53.756;21.140;2024-01-15T16:41:26;96673.52;;;-1.01;70.73
64460;BME280;50828;53.756;21.140;2024-01-15T16:46:34;96679.81;;;-1.02;70.74
64460;BME280;50828;53.756;21.140;2024-01-15T16:51:41;96683.03;;;-1.04;70.61
64460;BME280;50828;53.756;21.140;2024-01-15T16:56:49;96681.12;;;-1.07;70.57
64460;BME280;50828;53.756;21.140;2024-01-15T17:01:57;96677.28;;;-1.10;70.66
64460;BME280;50828;53.756;21.140;2024-01-15T17:07:04;96689.10;;;-1.12;70.82
64460;BME280;50828;53.756;21.140;2024-01-15T17:12:12;96687.91;;;-1.12;70.58
64460;BME280;50828;53.756;21.140;2024-01-15T17:17:19;96691.60;;;-1.14;70.86
64460;BME280;50828;53.756;21.140;2024-01-15T17:22:27;96693.20;;;-1.15;70.95
64460;BME280;50828;53.756;21.140;2024-01-15T17:27:35;96703.42;;;-1.15;70.94
64460;BME280;50828;53.756;21.140;2024-01-15T17:32:42;96707.45;;;-1.17;70.96
64460;BME280;50828;53.756;21.140;2024-01-15T17:37:50;96714.52;;;-1.20;71.01
64460;BME280;50828;53.756;21.140;2024-01-15T17:42:58;96726.80;;;-1.24;70.92
64460;BME280;50828;53.756;21.140;2024-01-15T17:48:06;96728.86;;;-1.27;71.00
64460;BME280;50828;53.756;21.140;2024-01-15T17:53:14;96735.41;;;-1.31;71.23
64460;BME280;50828;53.756;21.140;2024-01-15T17:58:22;96741.61;;;-1.35;71.43
64460;BME280;50828;53.756;21.140;2024-01-15T18:03:29;96749.87;;;-1.38;71.87
64460;BME280;50828;53.756;21.140;2024-01-15T18:08:37;96751.23;;;-1.41;72.10
64460;BME280;50828;53.756;21.140;2024-01-15T18:13:45;96760.07;;;-1.46;72.09
64460;BME280;50828;53.756;21.140;2024-01-15T18:18:52;96769.29;;;-1.51;72.27
64460;BME280;50828;53.756;21.140;2024-01-15T18:24:00;96772.21;;;-1.55;72.22
64460;BME280;50828;53.756;21.140;2024-01-15T18:29:09;96777.70;;;-1.58;72.29
64460;BME280;50828;53.756;21.140;2024-01-15T18:34:18;96777.85;;;-1.61;72.18
64460;BME280;50828;53.756;21.140;2024-01-15T18:39:27;96780.31;;;-1.62;72.15
64460;BME280;50828;53.756;21.140;2024-01-15T18:44:34;96784.33;;;-1.63;71.93
64460;BME280;50828;53.756;21.140;2024-01-15T18:49:42;96788.14;;;-1.63;71.96
64460;BME280;50828;53.756;21.140;2024-01-15T18:54:51;96794.89;;;-1.63;71.75
64460;BME280;50828;53.756;21.140;2024-01-15T18:59:59;96797.17;;;-1.65;72.02
64460;BME280;50828;53.756;21.140;2024-01-15T19:05:08;96805.68;;;-1.66;71.97
64460;BME280;50828;53.756;21.140;2024-01-15T19:10:19;96806.77;;;-1.67;72.01
64460;BME280;50828;53.756;21.140;2024-01-15T19:15:28;96809.75;;;-1.68;71.88
64460;BME280;50828;53.756;21.140;2024-01-15T19:20:36;96812.20;;;-1.69;71.84
64460;BME280;50828;53.756;21.140;2024-01-15T19:25:44;96816.85;;;-1.69;71.90
64460;BME280;50828;53.756;21.140;2024-01-15T19:30:52;96822.34;;;-1.68;72.22
64460;BME280;50828;53.756;21.140;2024-01-15T19:35:59;96831.10;;;-1.68;72.14
64460;BME280;50828;53.756;21.140;2024-01-15T19:41:07;96835.34;;;-1.66;72.32
64460;BME280;50828;53.756;21.140;2024-01-15T19:46:16;96846.88;;;-1.65;72.53
64460;BME280;50828;53.756;21.140;2024-01-15T19:51:24;96856.36;;;-1.65;72.64
64460;BME280;50828;53.756;21.140;2024-01-15T19:56:33;96866.27;;;-1.62;72.53
64460;BME280;50828;53.756;21.140;2024-01-15T20:01:44;96874.63;;;-1.60;72.53
64460;BME280;50828;53.756;21.140;2024-01-15T20:06:52;96884.24;;;-1.59;72.63
64460;BME280;50828;53.756;21.140;2024-01-15T20:12:00;96895.02;;;-1.57;72.46
64460;BME280;50828;53.756;21.140;2024-01-15T20:17:09;96897.32;;;-1.54;72.40
64460;BME280;50828;53.756;21.140;2024-01-15T20:22:17;96905.54;;;-1.53;72.57
64460;BME280;50828;53.756;21.140;2024-01-15T20:27:25;96904.23;;;-1.58;72.45
64460;BME280;50828;53.756;21.140;2024-01-15T20:32:35;96921.69;;;-1.51;72.34
64460;BME280;50828;53.756;21.140;2024-01-15T20:37:43;96925.81;;;-1.50;72.40
64460;BME280;50828;53.756;21.140;2024-01-15T20:42:51;96930.21;;;-1.49;72.49
64460;BME280;50828;53.756;21.140;2024-01-15T20:48:00;96940.17;;;-1.47;72.81
64460;BME280;50828;53.756;21.140;2024-01-15T20:53:08;96944.27;;;-1.46;72.88
64460;BME280;50828;53.756;21.140;2024-01-15T20:58:22;96951.87;;;-1.46;73.10
64460;BME280;50828;53.756;21.140;2024-01-15T21:03:30;96968.79;;;-1.46;73.08
64460;BME280;50828;53.756;21.140;2024-01-15T21:08:39;96982.29;;;-1.47;73.21
64460;BME280;50828;53.756;21.140;2024-01-15T21:13:47;96995.27;;;-1.48;73.35
64460;BME280;50828;53.756;21.140;2024-01-15T21:18:55;97006.64;;;-1.47;73.37
64460;BME280;50828;53.756;21.140;2024-01-15T21:24:04;97024.56;;;-1.46;73.06
64460;BME280;50828;53.756;21.140;2024-01-15T21:29:12;97037.38;;;-1.48;72.88
64460;BME280;50828;53.756;21.140;2024-01-15T21:34:22;97047.56;;;-1.48;72.84
64460;BME280;50828;53.756;21.140;2024-01-15T21:39:29;97058.31;;;-1.49;72.40
64460;BME280;50828;53.756;21.140;2024-01-15T21:44:38;97073.73;;;-1.50;71.65
64460;BME280;50828;53.756;21.140;2024-01-15T21:49:46;97090.60;;;-1.54;71.06
64460;BME280;50828;53.756;21.140;2024-01-15T21:54:55;97094.93;;;-1.58;70.85
64460;BME280;50828;53.756;21.140;2024-01-15T22:00:03;97112.19;;;-1.63;70.72
64460;BME280;50828;53.756;21.140;2024-01-15T22:05:16;97127.91;;;-1.68;70.45
64460;BME280;50828;53.756;21.140;2024-01-15T22:10:25;97135.51;;;-1.72;70.50
64460;BME280;50828;53.756;21.140;2024-01-15T22:15:33;97150.56;;;-1.77;70.49
64460;BME280;50828;53.756;21.140;2024-01-15T22:20:41;97155.96;;;-1.84;70.52
64460;BME280;50828;53.756;21.140;2024-01-15T22:25:49;97157.08;;;-1.91;70.34
64460;BME280;50828;53.756;21.140;2024-01-15T22:30:57;97159.54;;;-1.97;70.28
64460;BME280;50828;53.756;21.140;2024-01-15T22:36:06;97163.86;;;-2.01;70.19
64460;BME280;50828;53.756;21.140;2024-01-15T22:41:14;97181.48;;;-2.07;70.04
64460;BME280;50828;53.756;21.140;2024-01-15T22:46:22;97197.56;;;-2.13;70.04
64460;BME280;50828;53.756;21.140;2024-01-15T22:51:30;97206.24;;;-2.20;69.90
64460;BME280;50828;53.756;21.140;2024-01-15T22:56:38;97207.99;;;-2.26;69.83
64460;BME280;50828;53.756;21.140;2024-01-15T23:01:47;97215.09;;;-2.31;69.48
64460;BME280;50828;53.756;21.140;2024-01-15T23:06:59;97223.08;;;-2.38;69.50
64460;BME280;50828;53.756;21.140;2024-01-15T23:12:10;97228.66;;;-2.45;69.30
64460;BME280;50828;53.756;21.140;2024-01-15T23:17:18;97233.81;;;-2.50;69.54
64460;BME280;50828;53.756;21.140;2024-01-15T23:22:26;97239.19;;;-2.56;69.42
64460;BME280;50828;53.756;21.140;2024-01-15T23:27:34;97244.54;;;-2.61;69.38
64460;BME280;50828;53.756;21.140;2024-01-15T23:32:41;97254.86;;;-2.66;69.26
64460;BME280;50828;53.756;21.140;2024-01-15T23:37:49;97265.67;;;-2.70;69.34
64460;BME280;50828;53.756;21.140;2024-01-15T23:42:56;97282.04;;;-2.75;69.18
64460;BME280;50828;53.756;21.140;2024-01-15T23:48:06;97285.13;;;-2.81;69.04
64460;BME280;50828;53.756;21.140;2024-01-15T23:53:15;97299.13;;;-2.88;69.09
64460;BME280;50828;53.756;21.140;2024-01-15T23:58:23;97313.04;;;-2.92;68.97
